createdAt,value
2019-05-25T00:00:11.783Z,23.10
2019-05-25T00:02:41.239Z,23.10
2019-05-25T00:05:10.648Z,23.50
2019-05-25T00:07:39.657Z,23.90
2019-05-25T00:10:08.722Z,24.10
2019-05-25T00:12:37.779Z,24.50
2019-05-25T00:15:07.476Z,24.70
2019-05-25T00:17:36.597Z,25.10
2019-05-25T00:20:05.956Z,25.40
2019-05-25T00:22:34.871Z,25.60
2019-05-25T00:25:04.096Z,26.00
2019-05-25T00:27:33.012Z,26.30
2019-05-25T00:30:02.410Z,26.60
2019-05-25T00:32:31.276Z,27.20
2019-05-25T00:35:00.193Z,27.10
2019-05-25T00:37:29.071Z,27.60
2019-05-25T00:39:57.966Z,27.80
2019-05-25T00:42:26.867Z,27.80
2019-05-25T00:44:56.318Z,28.30
2019-05-25T00:47:25.547Z,28.50
2019-05-25T00:49:54.363Z,28.80
2019-05-25T00:52:23.784Z,29.10
2019-05-25T00:54:52.770Z,29.60
2019-05-25T00:57:21.617Z,29.80
2019-05-25T00:59:50.956Z,30.00
2019-05-25T01:02:19.825Z,30.00
2019-05-25T01:04:48.628Z,30.30
2019-05-25T01:07:17.851Z,30.80
2019-05-25T01:09:46.785Z,31.60
2019-05-25T01:12:15.673Z,31.90
2019-05-25T01:14:44.528Z,32.10
2019-05-25T01:17:13.460Z,32.50
2019-05-25T01:19:42.423Z,33.00
2019-05-25T01:22:11.268Z,33.50
2019-05-25T01:24:44.368Z,34.30
2019-05-25T01:27:10.816Z,34.50
2019-05-25T01:29:39.875Z,35.80
2019-05-25T01:32:08.786Z,36.80
2019-05-25T01:34:37.677Z,37.50
2019-05-25T01:37:06.580Z,38.20
2019-05-25T01:39:35.758Z,39.10
2019-05-25T01:42:04.699Z,39.70
2019-05-25T01:44:33.610Z,40.40
2019-05-25T01:47:03.872Z,41.30
2019-05-25T01:49:32.791Z,42.00
2019-05-25T01:52:01.685Z,43.40
2019-05-25T01:54:30.600Z,43.50
2019-05-25T01:56:59.415Z,44.10
2019-05-25T01:59:28.441Z,45.10
2019-05-25T02:01:57.402Z,45.00
2019-05-25T02:04:26.433Z,45.60
2019-05-25T02:06:55.283Z,46.10
2019-05-25T02:09:24.157Z,46.30
2019-05-25T02:11:53.075Z,46.60
2019-05-25T02:14:22.017Z,47.30
2019-05-25T02:16:50.929Z,47.90
2019-05-25T02:19:19.751Z,47.90
2019-05-25T02:21:48.589Z,48.30
2019-05-25T02:24:17.967Z,48.70
2019-05-25T02:26:46.826Z,48.30
2019-05-25T02:29:15.860Z,47.90
2019-05-25T02:31:44.693Z,48.10
2019-05-25T02:34:13.633Z,47.80
2019-05-25T02:36:42.680Z,47.90
2019-05-25T02:39:11.574Z,48.00
2019-05-25T02:41:41.488Z,48.60
2019-05-25T02:44:10.396Z,49.70
2019-05-25T02:46:39.505Z,50.80
2019-05-25T02:49:08.481Z,52.40
2019-05-25T02:51:37.381Z,52.90
2019-05-25T02:54:06.662Z,54.00
2019-05-25T02:56:35.854Z,54.60
2019-05-25T02:59:05.047Z,55.50
2019-05-25T03:01:34.029Z,56.70
2019-05-25T03:04:02.930Z,57.30
2019-05-25T03:06:32.803Z,58.00
2019-05-25T03:09:01.918Z,59.30
2019-05-25T03:11:32.395Z,61.00
2019-05-25T03:14:02.979Z,62.00
2019-05-25T03:16:31.996Z,63.00
2019-05-25T03:19:00.887Z,64.30
2019-05-25T03:21:30.083Z,65.60
2019-05-25T03:23:58.983Z,66.30
2019-05-25T03:26:27.810Z,67.60
2019-05-25T03:28:56.718Z,68.40
2019-05-25T03:31:25.645Z,69.60
2019-05-25T03:33:54.482Z,70.90
2019-05-25T03:36:23.448Z,71.80
2019-05-25T03:38:52.583Z,72.60
2019-05-25T03:41:21.561Z,73.50
2019-05-25T03:43:50.479Z,73.60
2019-05-25T03:46:19.326Z,74.90
2019-05-25T03:48:48.380Z,76.10
2019-05-25T03:51:17.327Z,77.90
2019-05-25T03:53:46.173Z,78.60
2019-05-25T03:56:15.173Z,79.60
2019-05-25T03:58:44.194Z,80.50
2019-05-25T04:01:13.423Z,81.80
2019-05-25T04:03:42.383Z,82.70
2019-05-25T04:06:11.372Z,83.50
2019-05-25T04:08:40.168Z,84.70
2019-05-25T04:11:09.107Z,85.60
2019-05-25T04:13:37.967Z,85.80
2019-05-25T04:16:06.851Z,87.50
2019-05-25T04:18:35.695Z,88.50
2019-05-25T04:21:05.105Z,89.10
2019-05-25T04:23:33.999Z,90.00
2019-05-25T04:26:03.172Z,90.30
2019-05-25T04:28:32.074Z,91.40
2019-05-25T04:31:00.987Z,91.50
2019-05-25T04:33:29.829Z,91.70
2019-05-25T04:35:58.672Z,91.70
2019-05-25T04:38:27.546Z,91.50
2019-05-25T04:40:56.416Z,90.40
2019-05-25T04:43:25.701Z,90.60
2019-05-25T04:45:55.402Z,91.50
2019-05-25T04:48:24.294Z,92.40
2019-05-25T04:50:53.161Z,93.10
2019-05-25T04:53:22.110Z,93.50
2019-05-25T04:55:50.930Z,93.60
2019-05-25T04:58:19.975Z,92.40
2019-05-25T05:00:48.862Z,90.30
2019-05-25T05:03:17.847Z,84.50
2019-05-25T05:05:46.826Z,82.00
2019-05-25T05:08:15.647Z,82.90
2019-05-25T05:10:46.033Z,81.40
2019-05-25T05:13:34.046Z,82.10
2019-05-25T05:16:03.259Z,80.10
2019-05-25T05:18:32.147Z,84.30
2019-05-25T05:21:01.311Z,86.80
2019-05-25T05:23:30.155Z,86.20
2019-05-25T05:28:33.891Z,88.00
2019-05-25T05:31:02.858Z,90.20
2019-05-25T05:33:31.853Z,91.90
2019-05-25T05:36:02.124Z,91.90
2019-05-25T05:38:32.346Z,91.10
2019-05-25T05:41:03.121Z,90.90
2019-05-25T05:43:33.012Z,91.10
2019-05-25T05:46:03.561Z,90.70
2019-05-25T05:48:36.121Z,90.90
2019-05-25T05:51:08.615Z,91.00
2019-05-25T05:53:42.292Z,90.40
2019-05-25T05:56:11.112Z,91.00
2019-05-25T05:58:39.947Z,91.30
2019-05-25T06:01:09.156Z,91.20
2019-05-25T06:03:38.461Z,90.70
2019-05-25T06:06:07.716Z,90.30
2019-05-25T06:08:36.628Z,91.10
2019-05-25T06:11:06.170Z,92.20
2019-05-25T06:13:35.374Z,91.30
2019-05-25T06:16:04.456Z,90.20
2019-05-25T06:18:33.445Z,88.50
2019-05-25T06:21:02.392Z,89.00
2019-05-25T06:23:31.383Z,88.50
2019-05-25T06:26:00.341Z,88.70
2019-05-25T06:28:29.207Z,87.70
2019-05-25T06:30:58.364Z,87.10
2019-05-25T06:33:27.378Z,85.60
2019-05-25T06:35:57.539Z,84.10
2019-05-25T06:38:29.655Z,83.90
2019-05-25T06:40:58.980Z,83.70
2019-05-25T06:43:28.205Z,84.50
2019-05-25T06:45:57.102Z,82.40
2019-05-25T06:48:26.155Z,75.60
2019-05-25T06:50:55.111Z,76.90
2019-05-25T06:53:24.024Z,74.70
2019-05-25T06:55:53.679Z,71.30
2019-05-25T06:58:22.693Z,69.80
2019-05-25T07:00:51.956Z,68.50
2019-05-25T07:03:20.861Z,66.70
2019-05-25T07:05:49.894Z,68.20
2019-05-25T07:08:18.815Z,66.40
2019-05-25T07:10:48.415Z,69.40
2019-05-25T07:13:17.351Z,71.60
2019-05-25T07:15:46.620Z,70.50
2019-05-25T07:18:16.142Z,64.40
2019-05-25T07:20:46.375Z,60.50
2019-05-25T07:23:15.465Z,61.00
2019-05-25T07:25:44.477Z,58.80
2019-05-25T07:28:13.408Z,57.30
2019-05-25T07:30:42.320Z,58.60
2019-05-25T07:33:11.585Z,55.20
2019-05-25T07:35:40.727Z,53.90
2019-05-25T07:38:09.994Z,53.70
2019-05-25T07:40:38.943Z,55.20
2019-05-25T07:43:08.739Z,59.00
2019-05-25T07:45:37.739Z,58.90
2019-05-25T07:48:06.704Z,60.90
2019-05-25T07:50:35.671Z,58.30
2019-05-25T07:53:04.727Z,56.90
2019-05-25T07:55:33.715Z,54.00
2019-05-25T07:58:16.521Z,54.10
2019-05-25T08:00:37.980Z,53.30
2019-05-25T08:03:07.207Z,54.10
2019-05-25T08:05:36.162Z,55.90
2019-05-25T08:08:05.590Z,58.40
2019-05-25T08:10:34.741Z,56.60
2019-05-25T08:13:03.652Z,59.60
2019-05-25T08:15:32.827Z,56.80
2019-05-25T08:18:02.110Z,56.30
2019-05-25T08:20:31.016Z,58.20
2019-05-25T08:23:00.035Z,54.50
2019-05-25T08:25:29.127Z,53.00
2019-05-25T08:27:58.374Z,52.10
2019-05-25T08:30:27.828Z,53.70
2019-05-25T08:32:57.144Z,55.60
2019-05-25T08:35:26.287Z,56.60
2019-05-25T08:37:55.136Z,55.70
2019-05-25T08:40:24.287Z,51.30
2019-05-25T08:42:54.428Z,49.30
2019-05-25T08:45:25.924Z,49.50
2019-05-25T08:48:13.206Z,48.90
2019-05-25T08:50:43.924Z,49.70
2019-05-25T08:53:12.759Z,48.50
2019-05-25T08:55:41.835Z,48.30
2019-05-25T08:58:10.705Z,48.90
2019-05-25T09:00:39.608Z,48.40
2019-05-25T09:03:08.749Z,47.20
2019-05-25T09:05:37.762Z,45.90
2019-05-25T09:08:06.870Z,44.90
2019-05-25T09:10:35.896Z,45.40
2019-05-25T09:13:04.876Z,46.10
2019-05-25T09:15:34.179Z,46.00
2019-05-25T09:18:03.160Z,46.10
2019-05-25T09:20:32.152Z,44.40
2019-05-25T09:23:01.960Z,44.00
2019-05-25T09:25:50.489Z,45.00
2019-05-25T09:28:19.840Z,42.60
2019-05-25T09:30:48.748Z,43.20
2019-05-25T09:33:17.771Z,43.50
2019-05-25T09:35:47.591Z,42.20
2019-05-25T09:38:16.509Z,40.60
2019-05-25T09:40:45.490Z,40.00
2019-05-25T09:43:14.395Z,41.40
2019-05-25T09:45:43.501Z,41.80
2019-05-25T09:48:12.564Z,41.70
2019-05-25T09:50:41.561Z,44.30
2019-05-25T09:53:10.489Z,41.80
2019-05-25T09:55:39.455Z,37.60
2019-05-25T09:58:08.574Z,38.40
2019-05-25T10:00:40.140Z,39.90
2019-05-25T10:03:08.629Z,39.90
2019-05-25T10:05:37.600Z,40.00
2019-05-25T10:08:07.955Z,39.70
2019-05-25T10:10:37.239Z,39.40
2019-05-25T10:13:06.127Z,40.90
2019-05-25T10:15:35.135Z,40.30
2019-05-25T10:18:04.056Z,39.00
2019-05-25T10:20:33.096Z,38.90
2019-05-25T10:23:02.233Z,37.80
2019-05-25T10:25:31.302Z,36.30
2019-05-25T10:28:00.152Z,38.60
2019-05-25T10:30:29.156Z,38.90
2019-05-25T10:32:58.172Z,38.10
2019-05-25T10:35:27.379Z,39.00
2019-05-25T10:37:56.667Z,37.70
2019-05-25T10:40:25.675Z,36.20
2019-05-25T10:42:55.148Z,35.60
2019-05-25T10:45:24.142Z,37.00
2019-05-25T10:47:53.245Z,37.00
2019-05-25T10:50:22.579Z,37.30
2019-05-25T10:52:51.457Z,37.50
2019-05-25T10:55:20.751Z,38.20
2019-05-25T10:57:49.643Z,36.10
2019-05-25T11:00:20.319Z,36.30
2019-05-25T11:02:49.345Z,35.30
2019-05-25T11:05:19.113Z,34.40
2019-05-25T11:07:48.071Z,35.40
2019-05-25T11:10:17.411Z,35.00
2019-05-25T11:12:46.652Z,34.40
2019-05-25T11:15:17.581Z,35.90
2019-05-25T11:17:47.010Z,34.60
2019-05-25T11:20:16.160Z,34.50
2019-05-25T11:22:45.081Z,34.00
2019-05-25T11:25:14.549Z,33.10
2019-05-25T11:27:43.563Z,33.60
2019-05-25T11:30:14.739Z,34.10
2019-05-25T11:32:44.103Z,33.40
2019-05-25T11:35:13.717Z,33.20
2019-05-25T11:37:42.580Z,33.80
2019-05-25T11:40:12.184Z,33.40
2019-05-25T11:42:41.226Z,32.70
2019-05-25T11:45:11.147Z,34.00
2019-05-25T11:47:40.439Z,34.50
2019-05-25T11:50:30.025Z,33.40
2019-05-25T11:52:59.254Z,31.50
2019-05-25T11:55:28.168Z,31.50
2019-05-25T11:57:57.083Z,30.90
2019-05-25T12:00:26.437Z,30.30
2019-05-25T12:02:55.603Z,30.00
2019-05-25T12:05:24.591Z,31.30
2019-05-25T12:07:53.590Z,30.10
2019-05-25T12:10:22.543Z,31.50
2019-05-25T12:12:51.631Z,31.30
2019-05-25T12:15:20.874Z,30.80
2019-05-25T12:17:50.066Z,30.50
2019-05-25T12:20:19.905Z,30.20
2019-05-25T12:22:48.694Z,29.90
2019-05-25T12:25:17.887Z,30.40
2019-05-25T12:27:49.332Z,31.10
2019-05-25T12:30:18.161Z,31.40
2019-05-25T12:32:47.198Z,29.10
2019-05-25T12:35:18.296Z,29.20
2019-05-25T12:37:47.540Z,30.20
2019-05-25T12:40:17.155Z,29.80
2019-05-25T12:42:46.449Z,29.80
2019-05-25T12:45:16.442Z,29.00
2019-05-25T12:47:45.508Z,29.80
2019-05-25T12:50:15.385Z,30.00
2019-05-25T12:52:44.465Z,30.30
2019-05-25T12:55:13.466Z,30.90
2019-05-25T12:57:42.297Z,30.00
2019-05-25T13:00:16.165Z,29.30
2019-05-25T13:02:42.969Z,29.20
2019-05-25T13:05:12.173Z,29.50
2019-05-25T13:07:41.064Z,30.10
2019-05-25T13:10:10.129Z,29.20
2019-05-25T13:12:39.119Z,28.90
2019-05-25T13:15:08.192Z,27.90
2019-05-25T13:17:37.377Z,28.10
2019-05-25T13:20:06.867Z,26.50
2019-05-25T13:22:35.697Z,26.30
2019-05-25T13:25:05.961Z,27.40
2019-05-25T13:27:34.795Z,27.90
2019-05-25T13:30:05.736Z,28.00
2019-05-25T13:32:34.836Z,27.60
2019-05-25T13:35:05.023Z,27.50
2019-05-25T13:37:34.198Z,28.10
2019-05-25T13:40:03.103Z,26.70
2019-05-25T13:42:32.076Z,26.50
2019-05-25T13:45:01.102Z,26.30
2019-05-25T13:47:29.947Z,27.40
2019-05-25T13:49:58.976Z,27.10
2019-05-25T13:52:28.063Z,25.70
2019-05-25T13:54:56.968Z,25.30
2019-05-25T13:57:25.872Z,25.90
2019-05-25T13:59:55.121Z,26.00
2019-05-25T14:02:24.050Z,25.80
2019-05-25T14:04:53.276Z,25.50
2019-05-25T14:07:22.457Z,24.40
2019-05-25T14:09:51.243Z,24.80
2019-05-25T14:12:20.985Z,24.60
2019-05-25T14:14:49.948Z,23.10
2019-05-25T14:17:18.869Z,23.30
2019-05-25T14:19:48.252Z,23.40
2019-05-25T14:22:17.149Z,23.70
2019-05-25T14:24:46.090Z,24.00
2019-05-25T14:27:15.268Z,23.10
2019-05-25T14:29:44.228Z,23.80
2019-05-25T14:32:13.043Z,24.00
2019-05-25T14:34:42.481Z,23.90
2019-05-25T14:37:11.612Z,23.60
2019-05-25T14:39:40.648Z,24.50
2019-05-25T14:42:09.583Z,24.80
2019-05-25T14:44:38.524Z,24.70
2019-05-25T14:47:07.720Z,23.90
2019-05-25T14:49:36.617Z,24.40
2019-05-25T14:52:05.632Z,24.50
2019-05-25T14:54:34.882Z,24.00
2019-05-25T14:57:03.784Z,24.30
2019-05-25T14:59:32.751Z,24.10
2019-05-25T15:02:03.554Z,23.40
2019-05-25T15:04:32.690Z,23.70
2019-05-25T15:07:01.730Z,23.80
2019-05-25T15:09:30.848Z,24.40
2019-05-25T15:11:59.850Z,24.10
2019-05-25T15:14:28.754Z,23.00
2019-05-25T15:16:57.619Z,23.70
2019-05-25T15:19:26.585Z,23.40
2019-05-25T15:21:55.719Z,23.90
2019-05-25T15:24:24.891Z,23.40
2019-05-25T15:26:53.768Z,22.90
2019-05-25T15:29:22.776Z,23.60
2019-05-25T15:31:51.796Z,23.00
2019-05-25T15:34:20.781Z,23.30
2019-05-25T15:36:49.680Z,23.60
2019-05-25T15:39:18.548Z,23.80
2019-05-25T15:41:47.500Z,23.40
2019-05-25T15:44:16.388Z,23.20
2019-05-25T15:46:45.810Z,23.00
2019-05-25T15:49:15.608Z,23.00
2019-05-25T15:51:44.448Z,22.30
2019-05-25T15:54:13.373Z,23.70
2019-05-25T15:56:42.322Z,23.60
2019-05-25T15:59:11.725Z,24.20
2019-05-25T16:01:40.644Z,24.20
2019-05-25T16:04:09.578Z,24.50
2019-05-25T16:06:38.718Z,25.50
2019-05-25T16:09:08.179Z,26.10
2019-05-25T16:11:37.584Z,26.10
2019-05-25T16:14:07.806Z,26.00
2019-05-25T16:16:40.463Z,26.10
2019-05-25T16:19:09.426Z,26.60
2019-05-25T16:21:38.471Z,26.60
2019-05-25T16:24:08.296Z,26.20
2019-05-25T16:26:45.983Z,26.50
2019-05-25T16:29:08.084Z,26.40
2019-05-25T16:31:37.141Z,27.00
2019-05-25T16:34:06.068Z,27.00
2019-05-25T16:36:34.983Z,27.00
2019-05-25T16:39:05.236Z,26.90
2019-05-25T16:41:34.267Z,26.60
2019-05-25T16:44:03.563Z,26.60
2019-05-25T16:46:36.811Z,26.60
2019-05-25T16:49:05.789Z,27.00
2019-05-25T16:51:34.648Z,27.00
2019-05-25T16:54:03.576Z,26.90
2019-05-25T16:56:32.449Z,27.10
2019-05-25T16:59:01.455Z,26.90
2019-05-25T17:01:46.915Z,27.50
2019-05-25T17:04:01.391Z,27.40
2019-05-25T17:06:30.383Z,27.70
2019-05-25T17:08:59.746Z,27.90
2019-05-25T17:11:28.661Z,27.60
2019-05-25T17:13:57.616Z,27.50
2019-05-25T17:16:26.741Z,28.10
2019-05-25T17:18:55.972Z,28.00
2019-05-25T17:21:24.959Z,27.80
2019-05-25T17:23:53.889Z,28.00
2019-05-25T17:26:22.779Z,27.70
2019-05-25T17:28:51.809Z,27.90
2019-05-25T17:31:20.648Z,28.20
2019-05-25T17:33:49.611Z,28.40
2019-05-25T17:36:18.777Z,28.20
2019-05-25T17:38:47.591Z,28.30
2019-05-25T17:41:16.667Z,28.40
2019-05-25T17:43:45.638Z,28.60
2019-05-25T17:46:14.543Z,29.10
2019-05-25T17:48:43.464Z,29.40
2019-05-25T17:51:13.559Z,29.60
2019-05-25T17:53:42.996Z,30.40
2019-05-25T17:56:11.795Z,30.50
2019-05-25T17:58:40.620Z,30.50
2019-05-25T18:01:09.625Z,30.50
2019-05-25T18:03:38.890Z,30.60
2019-05-25T18:06:07.746Z,30.50
2019-05-25T18:08:36.669Z,30.60
2019-05-25T18:11:05.718Z,30.50
2019-05-25T18:13:34.679Z,30.40
2019-05-25T18:16:03.642Z,30.30
2019-05-25T18:18:32.478Z,31.00
2019-05-25T18:21:01.594Z,30.80
2019-05-25T18:23:30.438Z,30.90
2019-05-25T18:25:59.534Z,30.70
2019-05-25T18:28:28.389Z,30.70
2019-05-25T18:30:57.407Z,30.20
2019-05-25T18:33:26.412Z,30.40
2019-05-25T18:35:55.356Z,30.50
2019-05-25T18:38:44.295Z,29.70
2019-05-25T18:41:13.385Z,29.70
2019-05-25T18:43:42.702Z,30.80
2019-05-25T18:46:11.612Z,30.40
2019-05-25T18:48:40.469Z,30.40
2019-05-25T18:51:09.371Z,30.50
2019-05-25T18:53:38.623Z,30.40
2019-05-25T18:56:07.491Z,30.30
2019-05-25T18:58:36.382Z,30.70
2019-05-25T19:01:05.491Z,30.80
2019-05-25T19:03:34.824Z,31.20
2019-05-25T19:06:04.431Z,31.60
2019-05-25T19:08:33.408Z,31.70
2019-05-25T19:11:02.359Z,32.10
2019-05-25T19:13:31.194Z,32.60
2019-05-25T19:16:00.084Z,32.80
2019-05-25T19:18:29.144Z,32.70
2019-05-25T19:21:03.016Z,32.30
2019-05-25T19:23:32.117Z,33.10
2019-05-25T19:26:01.015Z,33.00
2019-05-25T19:28:30.182Z,33.50
2019-05-25T19:30:59.921Z,34.10
2019-05-25T19:33:29.417Z,34.60
2019-05-25T19:35:58.248Z,34.40
2019-05-25T19:38:27.200Z,35.00
2019-05-25T19:40:56.279Z,34.50
2019-05-25T19:43:25.203Z,35.20
2019-05-25T19:45:54.227Z,35.00
2019-05-25T19:48:23.269Z,35.20
2019-05-25T19:50:55.895Z,35.50
2019-05-25T19:53:22.938Z,36.10
2019-05-25T19:55:53.324Z,36.40
2019-05-25T19:58:22.676Z,36.70
2019-05-25T20:00:52.182Z,36.70
2019-05-25T20:03:21.188Z,37.30
2019-05-25T20:05:50.256Z,38.30
2019-05-25T20:08:19.183Z,38.80
2019-05-25T20:10:48.539Z,39.50
2019-05-25T20:13:17.351Z,39.70
2019-05-25T20:15:47.047Z,40.60
2019-05-25T20:18:16.062Z,41.70
2019-05-25T20:20:44.922Z,41.90
2019-05-25T20:23:14.204Z,43.20
2019-05-25T20:25:43.480Z,43.20
2019-05-25T20:28:12.327Z,43.90
2019-05-25T20:30:41.179Z,44.60
2019-05-25T20:33:10.230Z,45.10
2019-05-25T20:35:39.788Z,45.90
2019-05-25T20:38:08.769Z,46.30
2019-05-25T20:40:38.006Z,46.50
2019-05-25T20:43:07.067Z,47.40
2019-05-25T20:45:36.016Z,47.50
2019-05-25T20:48:05.104Z,48.20
2019-05-25T20:50:34.008Z,48.70
2019-05-25T20:53:02.831Z,49.40
2019-05-25T20:55:31.744Z,49.60
2019-05-25T20:58:00.891Z,50.10
2019-05-25T21:00:29.946Z,51.00
2019-05-25T21:03:06.151Z,51.60
2019-05-25T21:05:30.260Z,51.60
2019-05-25T21:07:59.143Z,52.10
2019-05-25T21:10:28.271Z,52.70
2019-05-25T21:12:57.282Z,53.10
2019-05-25T21:15:26.199Z,52.90
2019-05-25T21:17:55.711Z,53.80
2019-05-25T21:20:24.518Z,53.90
2019-05-25T21:22:53.550Z,54.20
2019-05-25T21:25:22.488Z,54.00
2019-05-25T21:27:51.480Z,55.20
2019-05-25T21:30:21.437Z,54.80
2019-05-25T21:32:50.292Z,54.60
2019-05-25T21:35:19.251Z,54.70
2019-05-25T21:37:48.184Z,54.70
2019-05-25T21:40:17.452Z,55.00
2019-05-25T21:42:46.343Z,55.40
2019-05-25T21:45:16.588Z,55.80
2019-05-25T21:47:45.396Z,56.60
2019-05-25T21:50:14.513Z,58.20
2019-05-25T21:52:43.602Z,58.40
2019-05-25T21:55:12.972Z,61.00
2019-05-25T21:57:42.153Z,61.40
2019-05-25T22:00:13.482Z,63.30
2019-05-25T22:02:42.478Z,65.00
2019-05-25T22:05:11.847Z,66.40
2019-05-25T22:07:40.688Z,67.60
2019-05-25T22:10:10.227Z,68.40
2019-05-25T22:12:40.428Z,69.40
2019-05-25T22:15:10.643Z,70.20
2019-05-25T22:17:40.307Z,71.30
2019-05-25T22:20:09.741Z,72.30
2019-05-25T22:22:38.682Z,73.20
2019-05-25T22:25:07.853Z,72.80
2019-05-25T22:27:36.692Z,73.70
2019-05-25T22:30:06.175Z,74.10
2019-05-25T22:32:35.115Z,74.70
2019-05-25T22:35:04.333Z,75.20
2019-05-25T22:37:33.262Z,75.50
2019-05-25T22:40:02.185Z,76.60
2019-05-25T22:42:31.020Z,77.10
2019-05-25T22:44:59.930Z,76.80
2019-05-25T22:47:29.162Z,77.50
2019-05-25T22:49:58.008Z,77.20
2019-05-25T22:52:26.994Z,77.40
2019-05-25T22:54:56.160Z,77.60
2019-05-25T22:57:25.036Z,79.40
2019-05-25T22:59:54.300Z,80.50
2019-05-25T23:02:23.126Z,81.00
2019-05-25T23:04:52.049Z,81.30
2019-05-25T23:07:20.977Z,81.80
2019-05-25T23:09:49.792Z,82.70
2019-05-25T23:12:18.692Z,84.10
2019-05-25T23:14:47.977Z,84.60
2019-05-25T23:17:16.822Z,84.60
2019-05-25T23:19:45.720Z,84.50
2019-05-25T23:22:14.624Z,84.50
2019-05-25T23:24:43.469Z,84.60
2019-05-25T23:27:15.363Z,85.00
2019-05-25T23:29:43.103Z,84.40
2019-05-25T23:32:12.069Z,84.90
2019-05-25T23:34:41.053Z,85.50
2019-05-25T23:37:14.822Z,86.60
2019-05-25T23:39:40.512Z,86.70
2019-05-25T23:42:09.460Z,87.20
2019-05-25T23:44:38.486Z,87.60
2019-05-25T23:47:07.305Z,86.20
2019-05-25T23:49:36.309Z,86.60
2019-05-25T23:52:05.327Z,87.20
2019-05-25T23:54:34.507Z,87.00
2019-05-25T23:57:03.607Z,85.90
2019-05-25T23:59:32.433Z,85.40
